Airfield :
LOGIN :

Register | Disclaimer

   EN    FR    IT 

 










Legend :    VFR   Marginal VFR   IFR   Intensive IFR   Very Intensive IFR
Visi :
Ceiling :
>= 8 km
>= 3000ft
5 to 8 km
1000 to 3000 ft
1500m to 5 km
500 to 1000 ft
800 to 1500m
200 to 500 ft
< 800m
< 200 ft
Symbols :   Thunderstorms  Fog  Heavy snow  Heavy precipitations  Wind > 20 kt
SIGMETs :     Misc.  Thunderstorms  Icing  Turbulence  Mountain Waves  Volcanic Ashes







- Airport Elevation : 52 ft
- IATA code : IOM
- Download approach charts


EGNS - Isle of Man

CURRENT METAR :
  • 181920Z 24009KT 9999 FEW012 SCT023 BKN035 15/13 Q1015 NOSIG

EXPIRED METARs :
  • 181850Z 24008KT 9999 FEW012 BKN024 14/13 Q1014 NOSIG
  • 181820Z 25011KT 9999 FEW009 SCT015 BKN025 15/13 Q1014 NOSIG
  • 181750Z 24011KT 9999 FEW008 SCT014 BKN019 14/12 Q1014 NOSIG
  • 181720Z 24009KT 9999 FEW004 SCT008 BKN019 14/12 Q1014 TEMPO BKN005
  • 181650Z 23010KT 9999 SCT004 BKN024 14/12 Q1014 TEMPO BKN004

TAF TAF EGNS
Valid from the 18 at 18:00 until the 18 at 21:00 UTC


181700Z 1818/1821 26015KT 9999 FEW006 BKN022
PROB30
TEMPO 1818/1819 BKN005
No reported NOTAMs for that airfield.
1 SIGMET reported for the London FIR (EGTT) :
 
Severe mountain waves
EGTT SIGMET 03 VALID 181800/182200 EGRR
EGTT LONDON FIR SEV MTW FCST WI N5325 E00140 - N5321 W00246 - N5500 W00447 - N5500 W00100 - N5500 E00101 - N5325 E00140 FL040/240 STNR WKN=



MET'MAP, your aeronautical weather chart ! - Copyright ORBIFLY December 2007 - Disclaimer

ORBIFLY MET'MAP TEAM :

Programming & Development : Alexandra Zaïnal
Concept & Development : Baudouin d'Aumeries
Co-Development & Prog : Marc-Olivier Méhu
Technical & hardware support : Manuel Goepfert

Contact : metmap@orbifly.com




SOURCES & CREDITS :

   NOAA